Time;durP1;ratioP1;P1;durP2;ratioP2;P2;SDS_P1;SDS_P2;PMS_P1;PMS_P2;Temp;Humidity;BMP_temperature;BMP_pressure;BME280_temperature;BME280_humidity;BME280_pressure;Samples;Min_cycle;Max_cycle;Signal;HPM_P1;HPM_P2
2023/08/03 00:00:15;;;;;;;1.13;1.03;;;;;;;24.78;61.47;96191.50;5062787;28;20204;-26
2023/08/03 00:02:42;;;;;;;1.30;1.20;;;;;;;24.77;61.49;96190.63;5071862;28;20235;-31
2023/08/03 00:05:09;;;;;;;1.00;1.00;;;;;;;24.77;61.07;96198.34;5062901;28;20269;-29
2023/08/03 00:07:35;;;;;;;1.00;1.00;;;;;;;24.77;61.49;96208.63;5057781;28;20660;-26
2023/08/03 00:10:02;;;;;;;1.10;1.10;;;;;;;24.76;61.58;96204.34;5067193;28;20261;-28
2023/08/03 00:12:29;;;;;;;1.23;1.13;;;;;;;24.77;60.69;96218.88;5067749;28;20221;-34
2023/08/03 00:14:55;;;;;;;0.97;0.97;;;;;;;24.77;61.39;96218.03;5070114;28;20724;-29
2023/08/03 00:17:22;;;;;;;1.17;1.10;;;;;;;24.76;61.47;96209.47;5067169;28;20249;-28
2023/08/03 00:19:49;;;;;;;1.37;1.27;;;;;;;24.76;61.16;96199.22;5065739;28;20268;-27
2023/08/03 00:22:16;;;;;;;1.10;1.10;;;;;;;24.77;61.26;96189.75;5061687;28;20271;-31
2023/08/03 00:24:42;;;;;;;2.93;1.27;;;;;;;24.76;61.17;96198.34;5067553;28;20259;-27
2023/08/03 00:27:09;;;;;;;12.80;1.80;;;;;;;24.76;61.16;96188.06;5063937;28;20204;-28
2023/08/03 00:29:35;;;;;;;1.37;1.10;;;;;;;24.75;61.26;96189.75;5073253;28;20624;-27
2023/08/03 00:32:02;;;;;;;3.47;1.20;;;;;;;24.76;61.50;96190.63;5062050;28;20316;-28
2023/08/03 00:34:29;;;;;;;4.30;1.20;;;;;;;24.76;61.35;96198.34;5054403;28;20247;-27
2023/08/03 00:36:56;;;;;;;1.83;1.20;;;;;;;24.75;61.44;96183.78;5067532;28;20602;-28
2023/08/03 00:39:23;;;;;;;1.00;1.00;;;;;;;24.77;61.10;96203.47;5069252;28;20208;-29
2023/08/03 00:41:50;;;;;;;0.90;0.90;;;;;;;24.77;61.18;96190.63;5060971;28;20255;-28
2023/08/03 00:44:17;;;;;;;2.30;1.10;;;;;;;24.77;61.08;96202.59;5071568;28;20630;-29
2023/08/03 00:46:44;;;;;;;1.00;1.00;;;;;;;24.78;61.61;96194.06;5065275;28;20284;-28
2023/08/03 00:49:10;;;;;;;1.00;1.00;;;;;;;24.77;61.38;96187.19;5060966;28;20627;-27
2023/08/03 00:51:37;;;;;;;2.50;1.00;;;;;;;24.77;61.29;96185.50;5063086;28;20231;-33
2023/08/03 00:54:07;;;;;;;1.13;1.07;;;;;;;24.78;61.13;96189.75;5062951;28;20204;-29
2023/08/03 00:56:34;;;;;;;1.10;1.10;;;;;;;24.78;61.52;96181.22;5048957;28;20716;-28
2023/08/03 00:59:04;;;;;;;0.83;0.83;;;;;;;24.75;61.52;96183.78;5068565;28;20208;-28
2023/08/03 01:01:30;;;;;;;1.20;1.10;;;;;;;24.78;61.46;96191.50;5043135;28;20647;-27
2023/08/03 01:03:57;;;;;;;1.00;1.00;;;;;;;24.76;61.48;96206.91;5068689;28;20228;-28
2023/08/03 01:06:24;;;;;;;1.20;1.10;;;;;;;24.77;61.64;96202.59;5058060;28;20224;-27
2023/08/03 01:08:50;;;;;;;1.20;1.10;;;;;;;24.77;61.15;96205.19;5039434;28;20197;-28
2023/08/03 01:11:17;;;;;;;1.10;1.10;;;;;;;24.76;61.07;96204.34;5060694;28;20258;-28
2023/08/03 01:13:43;;;;;;;0.90;0.90;;;;;;;24.76;61.35;96200.91;5072273;28;20207;-28
2023/08/03 01:16:10;;;;;;;1.37;1.27;;;;;;;24.76;61.12;96206.03;5064947;28;20235;-28
2023/08/03 01:18:37;;;;;;;1.20;1.10;;;;;;;24.75;61.55;96194.91;5065455;28;20193;-27
2023/08/03 01:21:05;;;;;;;0.90;0.90;;;;;;;24.74;61.58;96193.22;5067593;28;20223;-28
2023/08/03 01:23:31;;;;;;;1.03;1.03;;;;;;;24.76;61.54;96199.22;5041883;28;20248;-28
2023/08/03 01:25:58;;;;;;;17.07;1.97;;;;;;;24.76;61.10;96199.22;5064900;28;20782;-27
2023/08/03 01:28:24;;;;;;;7.83;1.60;;;;;;;24.76;61.31;96186.34;5061461;28;20223;-28
2023/08/03 01:30:51;;;;;;;1.17;1.10;;;;;;;24.76;61.55;96188.94;5055160;28;20201;-28
2023/08/03 01:33:18;;;;;;;1.57;1.00;;;;;;;24.77;61.32;96184.63;5067558;28;20216;-27
2023/08/03 01:35:44;;;;;;;1.57;1.10;;;;;;;24.77;61.30;96177.78;5066312;28;20193;-29
2023/08/03 01:38:14;;;;;;;2.83;1.10;;;;;;;24.77;61.50;96190.63;5071943;28;20235;-31
2023/08/03 01:40:41;;;;;;;1.60;1.20;;;;;;;24.77;61.36;96188.06;5066971;28;20303;-29
2023/08/03 01:43:08;;;;;;;0.93;0.90;;;;;;;24.76;61.65;96198.34;5067668;28;20220;-28
2023/08/03 01:45:34;;;;;;;1.17;0.90;;;;;;;24.75;61.35;96199.22;5067105;28;20721;-27
2023/08/03 01:48:01;;;;;;;1.00;1.00;;;;;;;24.74;61.40;96187.19;5069541;28;20295;-29
2023/08/03 01:50:28;;;;;;;1.00;1.00;;;;;;;24.74;61.70;96182.94;5069778;28;20196;-28
2023/08/03 01:52:54;;;;;;;0.90;0.90;;;;;;;24.74;61.73;96192.34;5070626;28;20714;-28
2023/08/03 01:55:21;;;;;;;1.03;1.00;;;;;;;24.74;61.70;96192.34;5067324;28;20196;-28
2023/08/03 01:57:48;;;;;;;0.90;0.90;;;;;;;24.73;61.61;96201.78;5072048;28;20196;-27
2023/08/03 02:00:14;;;;;;;1.10;1.10;;;;;;;24.74;61.57;96200.06;5065162;28;20295;-28
2023/08/03 02:02:41;;;;;;;1.07;1.00;;;;;;;24.73;61.52;96204.34;5065974;28;20247;-28
2023/08/03 02:05:07;;;;;;;1.00;1.00;;;;;;;24.69;61.41;96187.22;5071858;28;20560;-28
2023/08/03 02:07:53;;;;;;;1.20;1.10;;;;;;;24.73;61.81;96180.38;5068577;28;20236;-29
2023/08/03 02:10:21;;;;;;;1.10;1.10;;;;;;;24.73;61.35;96185.50;5062132;28;20249;-28
2023/08/03 02:12:47;;;;;;;0.80;0.80;;;;;;;24.73;61.53;96196.66;5060002;28;20212;-28
2023/08/03 02:15:14;;;;;;;1.10;1.00;;;;;;;24.73;61.36;96201.78;5071972;28;20546;-27
2023/08/03 02:17:41;;;;;;;1.30;0.97;;;;;;;24.73;61.54;96204.34;5062205;28;20201;-28
2023/08/03 02:20:08;;;;;;;1.10;1.10;;;;;;;24.72;61.50;96197.50;5065886;28;20619;-27
2023/08/03 02:22:35;;;;;;;1.10;1.10;;;;;;;24.73;61.30;96186.38;5058273;28;20723;-27
2023/08/03 02:25:02;;;;;;;0.90;0.90;;;;;;;24.73;61.47;96185.50;5071399;28;20262;-27
2023/08/03 02:27:28;;;;;;;1.90;0.97;;;;;;;24.72;61.86;96176.94;5071480;28;20197;-28
2023/08/03 02:29:55;;;;;;;1.40;1.10;;;;;;;24.73;61.53;96168.38;5061694;28;20197;-28
2023/08/03 02:32:22;;;;;;;6.53;1.63;;;;;;;24.72;61.28;96158.94;5070098;28;20251;-28
2023/08/03 02:34:48;;;;;;;1.93;1.13;;;;;;;24.74;61.40;96153.81;5065400;28;20201;-27
2023/08/03 02:37:15;;;;;;;2.40;1.10;;;;;;;24.74;61.38;96158.94;5069217;28;20254;-29
2023/08/03 02:39:41;;;;;;;1.03;1.03;;;;;;;24.75;61.42;96163.25;5061871;28;20204;-28
2023/08/03 02:42:08;;;;;;;2.50;1.07;;;;;;;24.74;61.34;96161.50;5067981;28;20258;-29
2023/08/03 02:44:34;;;;;;;2.00;1.10;;;;;;;24.73;61.50;96170.97;5053054;28;20710;-28
2023/08/03 02:47:01;;;;;;;4.10;1.10;;;;;;;24.73;61.64;96173.53;5065805;28;20285;-28
2023/08/03 02:49:27;;;;;;;3.47;1.10;;;;;;;24.70;61.44;96170.09;5068100;28;20637;-27
2023/08/03 02:51:54;;;;;;;0.90;0.90;;;;;;;24.73;61.73;96180.38;5063041;28;20227;-31
2023/08/03 02:54:21;;;;;;;1.10;1.10;;;;;;;24.73;61.61;96183.81;5057246;28;20197;-29
2023/08/03 02:56:47;;;;;;;1.13;1.13;;;;;;;24.72;61.70;96182.06;5063393;28;20279;-28
2023/08/03 02:59:18;;;;;;;1.00;1.00;;;;;;;24.72;61.29;96188.94;5065062;28;20640;-27
2023/08/03 03:01:45;;;;;;;3.47;1.20;;;;;;;24.73;61.40;96204.34;5070996;28;20299;-29
2023/08/03 03:04:12;;;;;;;5.27;1.17;;;;;;;24.73;61.79;96198.34;5062097;28;20227;-28
2023/08/03 03:06:38;;;;;;;0.90;0.90;;;;;;;24.73;61.61;96200.91;5074283;28;20220;-27
2023/08/03 03:09:05;;;;;;;1.93;1.00;;;;;;;24.73;61.27;96206.94;5075196;28;20200;-27
2023/08/03 03:11:32;;;;;;;1.73;1.00;;;;;;;24.73;61.74;96213.78;5071647;28;20232;-28
2023/08/03 03:13:58;;;;;;;2.60;0.90;;;;;;;24.73;61.66;96214.63;5062814;28;20212;-28
2023/08/03 03:16:25;;;;;;;1.30;1.17;;;;;;;24.73;61.75;96224.91;5072308;28;20250;-29
2023/08/03 03:18:52;;;;;;;2.40;1.00;;;;;;;24.73;61.44;96214.63;5071893;28;20200;-28
2023/08/03 03:21:22;;;;;;;11.80;2.10;;;;;;;24.73;61.36;96219.78;5071977;28;20579;-27
2023/08/03 03:23:48;;;;;;;4.73;1.40;;;;;;;24.74;61.83;96218.03;5073588;28;20219;-28
2023/08/03 03:26:15;;;;;;;1.17;1.10;;;;;;;24.71;61.77;96218.03;5074200;28;20239;-27
2023/08/03 03:28:41;;;;;;;1.33;1.00;;;;;;;24.72;61.72;96236.03;5063972;28;20221;-28
2023/08/03 03:31:08;;;;;;;1.00;1.00;;;;;;;24.72;61.71;96238.59;5073667;28;20196;-28
2023/08/03 03:33:35;;;;;;;2.67;1.10;;;;;;;24.72;61.58;96232.63;5073147;28;20223;-28
2023/08/03 03:36:01;;;;;;;13.90;1.53;;;;;;;24.72;61.25;96220.59;5067406;28;20199;-29
2023/08/03 03:38:28;;;;;;;1.43;1.07;;;;;;;24.72;61.38;96225.75;5057384;28;20233;-28
2023/08/03 03:40:54;;;;;;;1.30;1.20;;;;;;;24.68;61.80;96212.91;5060966;28;20571;-28
2023/08/03 03:43:21;;;;;;;1.00;0.90;;;;;;;24.73;61.25;96226.63;5069533;28;20315;-27
2023/08/03 03:45:48;;;;;;;3.80;1.20;;;;;;;24.73;61.75;96231.75;5058682;28;20213;-28
2023/08/03 03:48:15;;;;;;;1.83;1.20;;;;;;;24.72;60.87;96233.47;5065312;28;20279;-27
2023/08/03 03:50:41;;;;;;;28.03;2.70;;;;;;;24.69;60.04;96238.59;5062528;28;20196;-27
2023/08/03 03:53:08;;;;;;;2.30;1.13;;;;;;;24.70;60.16;96242.91;5068495;28;20223;-29
2023/08/03 03:55:34;;;;;;;0.90;0.90;;;;;;;24.71;60.48;96251.44;5063684;28;20231;-28
2023/08/03 03:58:02;;;;;;;1.10;1.10;;;;;;;24.71;60.54;96257.44;5069193;28;20287;-28
2023/08/03 04:00:29;;;;;;;0.97;0.97;;;;;;;24.70;60.43;96255.75;5057797;28;20246;-28
2023/08/03 04:02:56;;;;;;;1.20;1.10;;;;;;;24.71;60.43;96264.28;5062033;28;20224;-28
2023/08/03 04:05:22;;;;;;;1.17;1.00;;;;;;;24.69;60.51;96259.16;5065139;28;20223;-27
2023/08/03 04:07:49;;;;;;;1.00;1.00;;;;;;;24.68;60.60;96265.16;5057511;28;20225;-26
2023/08/03 04:10:15;;;;;;;1.10;1.00;;;;;;;24.67;60.75;96257.47;5064202;28;20205;-28
2023/08/03 04:12:42;;;;;;;1.17;1.10;;;;;;;24.66;60.40;96258.34;5059438;28;20217;-28
2023/08/03 04:15:09;;;;;;;1.27;1.00;;;;;;;24.64;60.56;96258.31;5056925;28;20227;-28
2023/08/03 04:17:35;;;;;;;1.00;1.00;;;;;;;24.64;60.71;96254.88;5065488;28;20266;-28
2023/08/03 04:20:02;;;;;;;1.00;0.90;;;;;;;24.64;60.54;96265.16;5059569;28;20200;-29
2023/08/03 04:22:29;;;;;;;1.47;1.10;;;;;;;24.64;60.70;96270.28;5064651;28;20591;-28
2023/08/03 04:24:55;;;;;;;1.00;1.00;;;;;;;24.63;60.57;96269.41;5064334;28;20232;-28
2023/08/03 04:27:22;;;;;;;2.93;1.10;;;;;;;24.61;61.16;96266.03;5064601;28;20220;-28
2023/08/03 04:29:48;;;;;;;1.00;1.00;;;;;;;24.61;61.10;96265.16;5067354;28;20197;-28
2023/08/03 04:32:15;;;;;;;1.00;1.00;;;;;;;24.61;61.07;96265.16;5067921;28;20227;-28
2023/08/03 04:34:42;;;;;;;1.00;1.00;;;;;;;24.60;61.09;96269.44;5065334;28;20206;-27
2023/08/03 04:37:08;;;;;;;1.00;1.00;;;;;;;24.61;60.98;96278.00;5071050;28;20192;-27
2023/08/03 04:39:35;;;;;;;1.13;0.93;;;;;;;24.61;61.18;96283.13;5060408;28;20599;-26
2023/08/03 04:42:01;;;;;;;1.23;1.13;;;;;;;24.60;61.05;96296.84;5071750;28;20722;-29
2023/08/03 04:44:28;;;;;;;1.37;1.20;;;;;;;24.56;61.35;96293.44;5072452;28;20761;-27
2023/08/03 04:46:54;;;;;;;1.43;1.10;;;;;;;24.58;61.07;96299.44;5067520;28;20227;-28
2023/08/03 04:49:22;;;;;;;1.07;1.07;;;;;;;24.59;61.06;96307.97;5069869;28;20196;-28
2023/08/03 04:51:51;;;;;;;3.70;1.10;;;;;;;24.57;61.10;96302.00;5069478;28;20788;-28
2023/08/03 04:54:18;;;;;;;1.40;1.27;;;;;;;24.58;61.51;96308.84;5066367;28;20205;-28
2023/08/03 04:56:45;;;;;;;2.40;1.03;;;;;;;24.57;61.33;96310.53;5067416;28;20216;-27
2023/08/03 04:59:12;;;;;;;2.57;0.90;;;;;;;24.57;61.59;96318.25;5064875;28;20282;-28
2023/08/03 05:01:38;;;;;;;1.17;1.07;;;;;;;24.57;61.35;96312.28;5059441;28;20200;-27
2023/08/03 05:04:06;;;;;;;1.20;1.10;;;;;;;24.58;61.24;96321.69;5061292;28;20608;-28
2023/08/03 05:06:33;;;;;;;2.13;1.20;;;;;;;24.57;61.30;96323.38;5062231;28;20216;-27
2023/08/03 05:09:00;;;;;;;1.40;1.20;;;;;;;24.59;61.19;96320.81;5060730;28;20310;-28
2023/08/03 05:11:26;;;;;;;1.03;1.03;;;;;;;24.56;61.34;96324.25;5069928;28;20650;-28
2023/08/03 05:13:53;;;;;;;1.03;1.00;;;;;;;24.57;61.58;96322.53;5337826;22;20228;-22
2023/08/03 05:16:24;;;;;;;3.17;1.00;;;;;;;24.57;61.29;96322.53;5091658;28;20287;-22
2023/08/03 05:18:51;;;;;;;1.17;1.07;;;;;;;24.57;61.70;96312.28;5084063;28;20227;-32
2023/08/03 05:21:17;;;;;;;1.47;1.30;;;;;;;24.56;61.66;96313.09;5091329;28;20227;-22
2023/08/03 05:23:47;;;;;;;2.50;1.20;;;;;;;24.56;61.44;96313.09;5074191;28;20270;-22
2023/08/03 05:26:14;;;;;;;1.00;1.00;;;;;;;24.57;61.08;96317.41;5071368;28;20251;-22
2023/08/03 05:28:40;;;;;;;1.90;1.37;;;;;;;24.56;61.21;96320.81;5067229;28;20263;-21
2023/08/03 05:31:07;;;;;;;1.63;1.30;;;;;;;24.55;61.59;96314.84;5076716;28;20641;-22
2023/08/03 05:33:34;;;;;;;1.20;1.10;;;;;;;24.56;61.56;96323.38;5063146;28;20603;-21
2023/08/03 05:36:01;;;;;;;4.00;1.40;;;;;;;24.55;61.26;96319.13;5072157;28;20203;-22
2023/08/03 05:38:28;;;;;;;2.87;1.47;;;;;;;24.54;60.93;96322.56;5066763;28;20204;-21
2023/08/03 05:40:55;;;;;;;2.37;1.60;;;;;;;24.54;61.38;96330.25;5071659;28;20223;-21
2023/08/03 05:43:24;;;;;;;3.07;1.60;;;;;;;24.53;61.29;96331.97;5068122;28;20248;-21
2023/08/03 05:45:54;;;;;;;1.87;1.60;;;;;;;24.52;60.92;96335.41;5063526;28;20261;-21
2023/08/03 05:48:21;;;;;;;1.63;1.40;;;;;;;24.52;60.94;96329.41;5061571;28;20239;-22
2023/08/03 05:50:49;;;;;;;3.43;1.50;;;;;;;24.51;61.16;96328.53;5070999;28;20279;-22
2023/08/03 05:53:15;;;;;;;3.33;1.60;;;;;;;24.51;61.10;96345.69;5070267;28;20608;-22
2023/08/03 05:55:42;;;;;;;2.23;1.50;;;;;;;24.51;60.92;96333.66;5081078;28;20236;-21
2023/08/03 05:58:12;;;;;;;2.60;1.60;;;;;;;24.51;60.90;96340.53;5073633;28;20209;-22
2023/08/03 06:00:39;;;;;;;2.23;1.50;;;;;;;24.50;60.87;96339.66;5063429;28;20269;-21
2023/08/03 06:03:06;;;;;;;3.23;1.63;;;;;;;24.50;61.00;96339.66;5071956;28;20385;-21
2023/08/03 06:05:44;;;;;;;2.53;1.70;;;;;;;24.50;61.08;96338.81;5067240;28;20203;-21
2023/08/03 06:08:10;;;;;;;3.23;1.50;;;;;;;24.50;60.94;96338.81;5070371;28;20287;-21
2023/08/03 06:10:37;;;;;;;1.70;1.60;;;;;;;24.50;60.71;96333.66;5055727;28;20209;-22
2023/08/03 06:13:03;;;;;;;2.50;1.37;;;;;;;24.50;61.32;96331.09;5075344;28;20258;-21
2023/08/03 06:15:30;;;;;;;2.60;1.70;;;;;;;24.50;61.19;96338.81;5055071;28;20205;-21
2023/08/03 06:18:02;;;;;;;3.87;1.70;;;;;;;24.49;60.91;96342.25;5070115;28;20199;-21
2023/08/03 06:20:29;;;;;;;2.63;1.60;;;;;;;24.45;61.23;96337.97;5067965;28;20231;-21
2023/08/03 06:22:55;;;;;;;2.40;1.60;;;;;;;24.48;61.05;96337.97;5073495;28;20733;-21
2023/08/03 06:25:22;;;;;;;5.70;1.53;;;;;;;24.48;61.03;96346.50;5068826;28;20204;-21
2023/08/03 06:27:49;;;;;;;2.03;1.30;;;;;;;24.48;60.85;96351.66;5072214;28;20310;-22
2023/08/03 06:30:17;;;;;;;3.10;1.80;;;;;;;24.32;61.11;96324.28;5067810;28;20283;-22
2023/08/03 06:32:43;;;;;;;2.10;1.60;;;;;;;24.45;60.83;96337.97;5061571;28;20237;-22
2023/08/03 06:35:35;;;;;;;2.70;1.67;;;;;;;24.48;60.88;96343.09;5064825;28;20216;-22
2023/08/03 06:38:02;;;;;;;2.70;1.50;;;;;;;24.48;61.00;96346.50;5062217;28;20270;-22
2023/08/03 06:40:29;;;;;;;2.33;1.50;;;;;;;24.49;60.77;96352.50;5069743;28;20710;-22
2023/08/03 06:42:55;;;;;;;4.37;1.67;;;;;;;24.48;60.83;96348.25;5069244;28;20304;-22
2023/08/03 06:45:22;;;;;;;1.67;1.43;;;;;;;24.50;60.84;96351.66;5077413;28;20234;-22
2023/08/03 06:47:49;;;;;;;3.50;1.37;;;;;;;24.49;60.97;96345.69;5072039;28;20640;-22
2023/08/03 06:50:15;;;;;;;2.33;1.40;;;;;;;24.50;61.07;96342.25;5085565;28;20261;-21
2023/08/03 06:52:42;;;;;;;2.80;1.50;;;;;;;24.51;61.06;96337.97;5081484;28;20259;-21
2023/08/03 06:55:08;;;;;;;2.77;1.50;;;;;;;24.51;60.90;96338.81;5073438;28;20315;-22
2023/08/03 06:57:35;;;;;;;2.40;1.40;;;;;;;24.52;61.23;96337.09;5075823;28;20253;-21
2023/08/03 07:00:02;;;;;;;2.50;1.30;;;;;;;24.52;61.38;96339.66;5070086;28;20220;-22
2023/08/03 07:02:28;;;;;;;3.90;1.70;;;;;;;24.49;60.92;96344.81;5070568;28;20217;-22
2023/08/03 07:04:55;;;;;;;2.63;1.50;;;;;;;24.54;60.96;96353.38;5063107;28;20219;-21
2023/08/03 07:07:22;;;;;;;2.00;1.40;;;;;;;24.53;61.29;96354.22;5075529;28;20262;-22
2023/08/03 07:09:49;;;;;;;3.30;1.40;;;;;;;24.52;61.33;96353.38;5071625;28;20277;-21
2023/08/03 07:12:15;;;;;;;1.73;1.40;;;;;;;24.52;61.39;96357.66;5075436;28;20193;-21
2023/08/03 07:14:42;;;;;;;1.40;1.30;;;;;;;24.53;61.17;96359.34;5073433;28;20570;-21
2023/08/03 07:17:09;;;;;;;2.13;1.43;;;;;;;24.53;60.97;96354.22;5072219;28;20251;-22
2023/08/03 07:19:35;;;;;;;1.53;1.40;;;;;;;24.52;61.01;96353.38;5072632;28;20710;-22
2023/08/03 07:22:02;;;;;;;1.53;1.13;;;;;;;24.55;60.65;96373.06;5078364;28;20252;-22
2023/08/03 07:24:32;;;;;;;1.57;1.37;;;;;;;24.54;60.89;96374.75;5080832;28;20196;-22
2023/08/03 07:27:00;;;;;;;1.50;1.33;;;;;;;24.55;61.18;96373.94;5064335;28;20259;-22
2023/08/03 07:29:29;;;;;;;1.37;1.27;;;;;;;24.56;60.74;96379.91;5080857;28;20210;-22
2023/08/03 07:31:56;;;;;;;1.47;1.27;;;;;;;24.57;61.17;96371.34;5085003;28;20261;-21
2023/08/03 07:34:23;;;;;;;1.20;1.10;;;;;;;24.56;60.85;96365.34;5075259;28;20220;-21
2023/08/03 07:36:53;;;;;;;1.47;1.20;;;;;;;24.57;60.81;96361.06;5069453;28;20582;-21
2023/08/03 07:39:20;;;;;;;1.63;1.23;;;;;;;24.57;61.04;96364.47;5083157;28;20208;-21
2023/08/03 07:41:47;;;;;;;1.63;1.30;;;;;;;24.57;60.71;96377.31;5074669;28;20212;-21
2023/08/03 07:44:16;;;;;;;2.30;1.50;;;;;;;24.58;61.05;96367.91;5064524;28;20223;-21
2023/08/03 07:46:44;;;;;;;1.23;1.13;;;;;;;24.58;60.62;96378.19;5068987;28;20227;-22
2023/08/03 07:49:10;;;;;;;1.40;1.30;;;;;;;24.58;60.87;96363.66;5068677;28;20200;-21
2023/08/03 07:51:37;;;;;;;1.37;1.27;;;;;;;24.59;60.77;96380.75;5080464;28;20203;-22
2023/08/03 07:54:04;;;;;;;1.83;1.23;;;;;;;24.59;60.86;96374.75;5073302;28;20231;-21
2023/08/03 07:56:30;;;;;;;1.63;1.30;;;;;;;24.61;60.56;96386.75;5070632;28;20196;-21
2023/08/03 07:58:58;;;;;;;2.17;1.33;;;;;;;24.62;60.81;96397.88;5078634;28;20630;-22
2023/08/03 08:01:25;;;;;;;3.70;1.60;;;;;;;24.56;60.97;96380.75;5084375;28;20240;-21
2023/08/03 08:03:52;;;;;;;1.47;1.37;;;;;;;24.61;60.59;96391.91;5073164;28;20220;-21
2023/08/03 08:06:19;;;;;;;1.57;1.30;;;;;;;24.62;60.89;96405.56;5073240;28;20214;-21
2023/08/03 08:08:47;;;;;;;1.47;1.20;;;;;;;24.61;60.60;96398.75;5074253;28;20197;-22
2023/08/03 08:11:14;;;;;;;1.30;1.10;;;;;;;24.63;60.97;96405.56;5079992;28;20207;-22
2023/08/03 08:13:42;;;;;;;1.43;1.30;;;;;;;24.63;60.63;96408.16;5077805;28;20440;-21
2023/08/03 08:16:10;;;;;;;1.10;1.00;;;;;;;24.64;60.65;96407.31;5075421;28;20606;-22
2023/08/03 08:18:37;;;;;;;1.30;1.20;;;;;;;24.64;61.08;96403.88;5078903;28;20196;-21
2023/08/03 08:21:05;;;;;;;1.77;1.37;;;;;;;24.65;61.17;96405.63;5081127;28;20228;-21
2023/08/03 08:23:31;;;;;;;1.73;1.47;;;;;;;24.64;61.01;96415.03;5079621;28;20219;-21
2023/08/03 08:25:58;;;;;;;1.33;1.20;;;;;;;24.64;60.63;96397.03;5081260;28;20580;-21
2023/08/03 08:28:26;;;;;;;2.80;1.30;;;;;;;24.64;61.05;96402.16;5066285;28;20262;-22
2023/08/03 08:30:52;;;;;;;1.30;1.20;;;;;;;24.64;60.75;96404.75;5079238;28;20236;-21
2023/08/03 08:33:19;;;;;;;1.37;1.27;;;;;;;24.63;61.04;96392.72;5078976;28;20341;-21
2023/08/03 08:35:46;;;;;;;1.30;1.20;;;;;;;24.65;60.40;96403.91;5080599;28;20661;-21
2023/08/03 08:38:13;;;;;;;1.30;1.20;;;;;;;24.65;60.44;96385.06;5078842;28;20192;-21
2023/08/03 08:40:40;;;;;;;1.33;1.20;;;;;;;24.64;60.61;96398.75;5076399;28;20228;-21
2023/08/03 08:43:07;;;;;;;1.30;1.20;;;;;;;24.64;60.57;96404.75;5058425;28;20223;-21
2023/08/03 08:45:36;;;;;;;1.67;1.30;;;;;;;24.64;61.14;96402.16;5076476;28;20205;-21
2023/08/03 08:48:04;;;;;;;1.20;1.07;;;;;;;24.64;60.90;96394.47;5068715;28;20248;-21
2023/08/03 08:50:33;;;;;;;1.13;1.03;;;;;;;24.64;60.58;96397.03;5066584;28;20271;-21
2023/08/03 08:53:20;;;;;;;1.30;1.20;;;;;;;24.64;61.00;96398.75;5071260;28;20219;-21
2023/08/03 08:55:47;;;;;;;1.40;1.20;;;;;;;24.64;61.14;96396.16;5081462;28;20197;-21
2023/08/03 08:58:16;;;;;;;1.20;1.10;;;;;;;24.64;60.69;96407.31;5051188;28;20224;-21
2023/08/03 09:00:45;;;;;;;1.40;1.03;;;;;;;24.65;61.08;96413.31;5074843;28;20196;-21
2023/08/03 09:03:13;;;;;;;1.53;1.07;;;;;;;24.65;60.75;96413.31;5079804;28;20279;-21
2023/08/03 09:05:40;;;;;;;1.07;0.97;;;;;;;24.65;60.66;96421.03;5067875;28;20219;-21
2023/08/03 09:08:18;;;;;;;1.50;1.10;;;;;;;24.65;60.57;96427.03;5071171;28;20642;-22
2023/08/03 09:10:52;;;;;;;1.30;1.20;;;;;;;24.66;60.47;96427.91;5073457;28;20195;-22
2023/08/03 09:13:32;;;;;;;1.20;1.10;;;;;;;24.66;60.80;96433.03;5074358;28;20222;-21
2023/08/03 09:15:59;;;;;;;1.33;1.20;;;;;;;24.66;60.80;96433.88;5083014;28;20200;-22
2023/08/03 09:18:27;;;;;;;1.27;1.17;;;;;;;24.65;60.77;96421.88;5083924;28;20192;-21
2023/08/03 09:21:14;;;;;;;1.67;1.33;;;;;;;24.66;60.47;96430.47;5083121;28;20206;-21
2023/08/03 09:23:43;;;;;;;1.60;1.30;;;;;;;24.66;60.44;96421.03;5080948;28;20298;-22
2023/08/03 09:26:13;;;;;;;1.10;1.00;;;;;;;24.67;60.77;96433.03;5077795;28;20217;-21
2023/08/03 09:28:43;;;;;;;1.67;1.10;;;;;;;24.67;60.60;96430.47;5085908;28;20315;-22
2023/08/03 09:31:10;;;;;;;1.13;1.07;;;;;;;24.67;61.12;96442.44;5080142;28;20218;-21
2023/08/03 09:33:58;;;;;;;1.83;1.20;;;;;;;24.68;60.60;96454.44;5071497;28;20243;-21
2023/08/03 09:36:28;;;;;;;1.20;1.10;;;;;;;24.67;61.08;96439.88;5073561;28;20207;-22
2023/08/03 09:39:13;;;;;;;1.00;1.00;;;;;;;24.66;61.02;96451.84;5088147;28;20195;-21
2023/08/03 09:41:43;;;;;;;1.10;1.00;;;;;;;24.67;60.67;96448.44;5077643;28;20204;-21
2023/08/03 09:44:14;;;;;;;1.30;1.20;;;;;;;24.64;61.02;96450.13;5067408;28;20227;-21
2023/08/03 09:46:41;;;;;;;1.10;1.00;;;;;;;24.67;60.90;96445.00;5064412;28;20207;-22
2023/08/03 09:49:08;;;;;;;0.90;0.90;;;;;;;24.67;60.99;96447.59;5080954;28;20215;-21
2023/08/03 09:51:38;;;;;;;1.20;1.10;;;;;;;24.68;60.67;96459.56;5077605;28;20200;-21
2023/08/03 09:54:29;;;;;;;1.00;1.00;;;;;;;24.67;60.95;96451.03;5048842;28;20216;-21
2023/08/03 09:56:58;;;;;;;1.20;1.10;;;;;;;24.68;60.76;96463.00;5074438;28;20574;-21
2023/08/03 09:59:31;;;;;;;1.20;1.10;;;;;;;24.69;60.54;96463.88;5083258;28;20202;-22
2023/08/03 10:01:59;;;;;;;1.17;1.07;;;;;;;24.68;60.71;96457.88;5054734;28;20299;-22
2023/08/03 10:04:30;;;;;;;1.30;1.20;;;;;;;24.69;60.94;96458.72;5078782;28;20758;-21
2023/08/03 10:07:01;;;;;;;0.90;0.90;;;;;;;24.68;61.01;96445.00;5078929;28;20242;-21
2023/08/03 10:09:29;;;;;;;0.90;0.90;;;;;;;24.69;60.61;96445.88;5065250;28;20192;-21
2023/08/03 10:11:55;;;;;;;1.03;1.00;;;;;;;24.69;60.80;96449.28;5073147;28;20196;-21
2023/08/03 10:14:26;;;;;;;1.20;1.10;;;;;;;24.67;60.96;96452.72;5078013;28;20648;-21
2023/08/03 10:16:52;;;;;;;1.20;1.10;;;;;;;24.65;60.58;96439.88;5060959;28;20621;-21
2023/08/03 10:19:19;;;;;;;1.10;1.00;;;;;;;24.69;60.54;96453.59;5054167;28;20211;-22
2023/08/03 10:21:45;;;;;;;1.27;1.17;;;;;;;24.56;61.00;96428.69;5049963;28;20196;-21
2023/08/03 10:24:14;;;;;;;1.30;1.20;;;;;;;24.67;60.88;96438.19;5081529;28;20739;-22
2023/08/03 10:26:41;;;;;;;0.93;0.93;;;;;;;24.66;60.72;96456.16;5082315;28;20555;-22
2023/08/03 10:29:09;;;;;;;1.03;1.03;;;;;;;24.65;61.00;96464.69;5075750;28;20763;-22
2023/08/03 10:32:02;;;;;;;1.17;1.07;;;;;;;24.65;60.97;96459.56;5084413;28;20192;-22
2023/08/03 10:34:29;;;;;;;1.17;1.07;;;;;;;24.65;61.09;96472.41;5079112;28;20639;-22
2023/08/03 10:36:56;;;;;;;1.20;1.10;;;;;;;24.59;60.99;96450.13;5078197;28;20195;-22
2023/08/03 10:39:42;;;;;;;1.20;1.10;;;;;;;23.49;61.01;96273.69;5082973;28;20203;-22
2023/08/03 10:42:21;;;;;;;0.90;0.90;;;;;;;24.64;60.73;96466.41;5081561;28;20200;-21
2023/08/03 10:44:48;;;;;;;1.13;1.03;;;;;;;24.63;60.98;96469.81;5086544;28;20199;-22
2023/08/03 10:47:24;;;;;;;0.90;0.90;;;;;;;24.63;61.07;96451.81;5086450;28;20223;-21
2023/08/03 10:49:53;;;;;;;1.00;1.00;;;;;;;24.64;61.00;96455.25;5079388;28;20199;-22
2023/08/03 10:52:31;;;;;;;1.10;1.00;;;;;;;24.64;60.65;96457.81;5071920;28;20224;-22
2023/08/03 10:54:58;;;;;;;1.07;0.97;;;;;;;24.64;60.86;96453.56;5082697;28;20239;-21
2023/08/03 10:57:27;;;;;;;0.97;0.93;;;;;;;24.65;60.67;96445.00;5081991;28;20614;-22
2023/08/03 10:59:58;;;;;;;0.93;0.93;;;;;;;24.65;60.71;96452.72;5081049;28;20241;-22
2023/08/03 11:02:33;;;;;;;1.17;1.10;;;;;;;24.66;60.63;96453.59;5070364;28;20200;-21
2023/08/03 11:05:04;;;;;;;1.13;1.03;;;;;;;24.66;60.80;96446.72;5074515;28;20206;-22
2023/08/03 11:07:36;;;;;;;1.00;1.00;;;;;;;24.67;61.02;96465.56;5080683;28;20255;-22
2023/08/03 11:10:09;;;;;;;1.40;1.10;;;;;;;24.67;60.80;96469.00;5074858;28;20694;-21
2023/08/03 11:15:19;;;;;;;1.07;1.07;;;;;;;24.65;60.71;96463.00;5317812;22;20709;-27
2023/08/03 11:17:47;;;;;;;1.00;1.00;;;;;;;24.67;60.95;96463.00;5093856;28;20678;-28
2023/08/03 11:20:14;;;;;;;1.10;1.00;;;;;;;24.64;60.82;96457.81;5094615;28;20207;-27
2023/08/03 11:22:41;;;;;;;0.90;0.90;;;;;;;24.65;60.88;96473.28;5093546;28;20678;-27
2023/08/03 11:25:09;;;;;;;0.90;0.90;;;;;;;24.65;60.47;96474.97;5081589;28;20212;-27
2023/08/03 11:27:39;;;;;;;1.17;1.07;;;;;;;24.64;61.10;96473.25;5068723;28;20223;-27
2023/08/03 11:30:06;;;;;;;1.07;1.07;;;;;;;24.64;60.47;96462.97;5089332;28;20235;-27
2023/08/03 11:32:33;;;;;;;1.20;1.10;;;;;;;24.61;61.01;96476.69;5080460;28;20225;-27
2023/08/03 11:35:07;;;;;;;1.00;1.00;;;;;;;24.62;60.97;96467.22;5077604;28;20598;-27
2023/08/03 11:37:35;;;;;;;0.87;0.87;;;;;;;24.62;60.97;96467.22;5075557;28;20192;-27
2023/08/03 11:40:06;;;;;;;0.93;0.93;;;;;;;24.60;61.06;96474.94;5089836;28;20298;-27